sensor_id;sensor_type;location;lat;lon;timestamp;pressure;altitude;pressure_sealevel;temperature;humidity
24230;BME280;12362;50.004;8.006;2023-04-15T00:01:34;99765.00;;;3.68;100.00
24230;BME280;12362;50.004;8.006;2023-04-15T00:04:01;99756.53;;;3.66;100.00
24230;BME280;12362;50.004;8.006;2023-04-15T00:06:26;99764.78;;;3.75;100.00
24230;BME280;12362;50.004;8.006;2023-04-15T00:08:52;99761.03;;;3.85;100.00
24230;BME280;12362;50.004;8.006;2023-04-15T00:11:18;99763.47;;;3.90;100.00
24230;BME280;12362;50.004;8.006;2023-04-15T00:13:44;99757.38;;;3.92;100.00
24230;BME280;12362;50.004;8.006;2023-04-15T00:16:10;99754.81;;;3.92;100.00
24230;BME280;12362;50.004;8.006;2023-04-15T00:18:36;99751.94;;;3.75;100.00
24230;BME280;12362;50.004;8.006;2023-04-15T00:21:03;99749.53;;;3.71;100.00
24230;BME280;12362;50.004;8.006;2023-04-15T00:23:29;99749.22;;;3.54;100.00
24230;BME280;12362;50.004;8.006;2023-04-15T00:25:55;99754.34;;;3.54;100.00
24230;BME280;12362;50.004;8.006;2023-04-15T00:28:20;99755.56;;;3.43;100.00
24230;BME280;12362;50.004;8.006;2023-04-15T00:30:46;99748.75;;;3.42;100.00
24230;BME280;12362;50.004;8.006;2023-04-15T00:33:12;99749.78;;;3.36;100.00
24230;BME280;12362;50.004;8.006;2023-04-15T00:35:38;99751.28;;;3.43;100.00
24230;BME280;12362;50.004;8.006;2023-04-15T00:38:05;99751.50;;;3.36;100.00
24230;BME280;12362;50.004;8.006;2023-04-15T00:40:32;99753.13;;;3.38;100.00
24230;BME280;12362;50.004;8.006;2023-04-15T00:42:58;99747.91;;;3.14;100.00
24230;BME280;12362;50.004;8.006;2023-04-15T00:45:25;99747.00;;;3.15;100.00
24230;BME280;12362;50.004;8.006;2023-04-15T00:47:50;99748.81;;;3.11;100.00
24230;BME280;12362;50.004;8.006;2023-04-15T00:50:16;99751.03;;;3.23;100.00
24230;BME280;12362;50.004;8.006;2023-04-15T00:52:42;99743.91;;;3.33;100.00
24230;BME280;12362;50.004;8.006;2023-04-15T00:55:09;99748.03;;;3.09;100.00
24230;BME280;12362;50.004;8.006;2023-04-15T00:57:35;99752.31;;;3.09;100.00
24230;BME280;12362;50.004;8.006;2023-04-15T01:00:01;99746.91;;;3.18;100.00
24230;BME280;12362;50.004;8.006;2023-04-15T01:02:30;99748.38;;;3.26;100.00
24230;BME280;12362;50.004;8.006;2023-04-15T01:04:56;99747.81;;;3.17;100.00
24230;BME280;12362;50.004;8.006;2023-04-15T01:07:22;99756.94;;;2.96;100.00
24230;BME280;12362;50.004;8.006;2023-04-15T01:09:47;99747.75;;;2.89;100.00
24230;BME280;12362;50.004;8.006;2023-04-15T01:12:13;99754.97;;;3.06;100.00
24230;BME280;12362;50.004;8.006;2023-04-15T01:14:40;99747.81;;;3.17;100.00
24230;BME280;12362;50.004;8.006;2023-04-15T01:17:06;99748.22;;;3.03;100.00
24230;BME280;12362;50.004;8.006;2023-04-15T01:19:31;99753.75;;;2.90;100.00
24230;BME280;12362;50.004;8.006;2023-04-15T01:21:57;99757.19;;;2.89;100.00
24230;BME280;12362;50.004;8.006;2023-04-15T01:24:25;99751.13;;;2.91;100.00
24230;BME280;12362;50.004;8.006;2023-04-15T01:26:51;99745.03;;;2.95;100.00
24230;BME280;12362;50.004;8.006;2023-04-15T01:29:17;99752.91;;;2.89;100.00
24230;BME280;12362;50.004;8.006;2023-04-15T01:31:54;99753.28;;;2.76;100.00
24230;BME280;12362;50.004;8.006;2023-04-15T01:34:20;99753.50;;;2.68;100.00
24230;BME280;12362;50.004;8.006;2023-04-15T01:36:46;99749.72;;;2.81;100.00
24230;BME280;12362;50.004;8.006;2023-04-15T01:39:13;99750.41;;;2.86;100.00
24230;BME280;12362;50.004;8.006;2023-04-15T01:41:39;99747.97;;;2.82;100.00
24230;BME280;12362;50.004;8.006;2023-04-15T01:44:07;99751.63;;;2.73;100.00
24230;BME280;12362;50.004;8.006;2023-04-15T01:46:33;99754.31;;;2.70;100.00
24230;BME280;12362;50.004;8.006;2023-04-15T01:48:59;99757.06;;;2.63;100.00
24230;BME280;12362;50.004;8.006;2023-04-15T01:51:25;99755.00;;;2.75;100.00
24230;BME280;12362;50.004;8.006;2023-04-15T01:53:52;99759.22;;;2.78;100.00
24230;BME280;12362;50.004;8.006;2023-04-15T01:56:17;99760.66;;;2.86;100.00
24230;BME280;12362;50.004;8.006;2023-04-15T01:58:43;99747.91;;;2.85;100.00
24230;BME280;12362;50.004;8.006;2023-04-15T02:01:09;99744.66;;;2.78;100.00
24230;BME280;12362;50.004;8.006;2023-04-15T02:03:38;99750.88;;;2.71;100.00
24230;BME280;12362;50.004;8.006;2023-04-15T02:06:04;99748.25;;;2.73;100.00
24230;BME280;12362;50.004;8.006;2023-04-15T02:08:30;99751.53;;;2.78;100.00
24230;BME280;12362;50.004;8.006;2023-04-15T02:10:56;99757.34;;;2.83;100.00
24230;BME280;12362;50.004;8.006;2023-04-15T02:13:23;99752.28;;;2.81;100.00
24230;BME280;12362;50.004;8.006;2023-04-15T02:15:53;99753.78;;;2.88;100.00
24230;BME280;12362;50.004;8.006;2023-04-15T02:18:20;99761.69;;;2.81;100.00
24230;BME280;12362;50.004;8.006;2023-04-15T02:20:45;99764.41;;;2.75;100.00
24230;BME280;12362;50.004;8.006;2023-04-15T02:23:11;99758.81;;;2.61;100.00
24230;BME280;12362;50.004;8.006;2023-04-15T02:25:37;99760.78;;;2.52;100.00
24230;BME280;12362;50.004;8.006;2023-04-15T02:28:05;99759.66;;;2.62;100.00
24230;BME280;12362;50.004;8.006;2023-04-15T02:30:31;99761.88;;;2.43;100.00
24230;BME280;12362;50.004;8.006;2023-04-15T02:33:00;99756.88;;;2.39;100.00
24230;BME280;12362;50.004;8.006;2023-04-15T02:35:26;99766.56;;;2.60;100.00
24230;BME280;12362;50.004;8.006;2023-04-15T02:37:52;99759.72;;;2.60;100.00
24230;BME280;12362;50.004;8.006;2023-04-15T02:40:18;99768.94;;;2.66;100.00
24230;BME280;12362;50.004;8.006;2023-04-15T02:42:44;99770.88;;;2.58;100.00
24230;BME280;12362;50.004;8.006;2023-04-15T02:45:12;99769.59;;;2.42;100.00
24230;BME280;12362;50.004;8.006;2023-04-15T02:47:39;99770.66;;;2.33;100.00
24230;BME280;12362;50.004;8.006;2023-04-15T02:50:08;99771.56;;;2.32;100.00
24230;BME280;12362;50.004;8.006;2023-04-15T02:52:34;99768.66;;;2.12;100.00
24230;BME280;12362;50.004;8.006;2023-04-15T02:54:59;99767.59;;;2.21;100.00
24230;BME280;12362;50.004;8.006;2023-04-15T02:57:28;99782.78;;;2.28;100.00
24230;BME280;12362;50.004;8.006;2023-04-15T02:59:55;99776.09;;;2.23;100.00
24230;BME280;12362;50.004;8.006;2023-04-15T03:02:21;99777.72;;;2.25;100.00
24230;BME280;12362;50.004;8.006;2023-04-15T03:04:46;99776.91;;;2.23;100.00
24230;BME280;12362;50.004;8.006;2023-04-15T03:07:12;99779.72;;;2.14;100.00
24230;BME280;12362;50.004;8.006;2023-04-15T03:09:37;99783.19;;;2.12;100.00
24230;BME280;12362;50.004;8.006;2023-04-15T03:12:06;99781.91;;;2.28;100.00
24230;BME280;12362;50.004;8.006;2023-04-15T03:14:34;99780.66;;;2.44;100.00
24230;BME280;12362;50.004;8.006;2023-04-15T03:17:00;99775.00;;;2.31;100.00
24230;BME280;12362;50.004;8.006;2023-04-15T03:19:25;99780.84;;;2.36;100.00
24230;BME280;12362;50.004;8.006;2023-04-15T03:21:51;99783.78;;;2.21;100.00
24230;BME280;12362;50.004;8.006;2023-04-15T03:24:19;99782.00;;;2.25;100.00
24230;BME280;12362;50.004;8.006;2023-04-15T03:26:45;99782.03;;;2.23;100.00
24230;BME280;12362;50.004;8.006;2023-04-15T03:29:15;99783.97;;;2.15;100.00
24230;BME280;12362;50.004;8.006;2023-04-15T03:31:41;99780.72;;;2.09;100.00
24230;BME280;12362;50.004;8.006;2023-04-15T03:34:06;99778.16;;;2.09;100.00
24230;BME280;12362;50.004;8.006;2023-04-15T03:36:32;99781.47;;;2.12;100.00
24230;BME280;12362;50.004;8.006;2023-04-15T03:38:58;99769.47;;;2.14;100.00
24230;BME280;12362;50.004;8.006;2023-04-15T03:41:23;99775.59;;;2.07;100.00
24230;BME280;12362;50.004;8.006;2023-04-15T03:43:49;99775.78;;;2.01;100.00
24230;BME280;12362;50.004;8.006;2023-04-15T03:46:17;99772.22;;;2.07;100.00
24230;BME280;12362;50.004;8.006;2023-04-15T03:48:42;99777.41;;;2.05;100.00
24230;BME280;12362;50.004;8.006;2023-04-15T03:51:08;99779.97;;;2.04;100.00
24230;BME280;12362;50.004;8.006;2023-04-15T03:53:34;99781.69;;;2.03;100.00
24230;BME280;12362;50.004;8.006;2023-04-15T03:55:59;99785.84;;;2.07;100.00
24230;BME280;12362;50.004;8.006;2023-04-15T03:58:25;99779.16;;;2.03;100.00
24230;BME280;12362;50.004;8.006;2023-04-15T04:00:51;99783.44;;;2.01;100.00
24230;BME280;12362;50.004;8.006;2023-04-15T04:03:20;99781.03;;;1.95;100.00
24230;BME280;12362;50.004;8.006;2023-04-15T04:05:45;99779.69;;;1.81;100.00
24230;BME280;12362;50.004;8.006;2023-04-15T04:08:11;99793.72;;;1.65;100.00
24230;BME280;12362;50.004;8.006;2023-04-15T04:10:38;99789.31;;;1.72;100.00
24230;BME280;12362;50.004;8.006;2023-04-15T04:13:04;99784.84;;;1.79;100.00
24230;BME280;12362;50.004;8.006;2023-04-15T04:15:29;99790.72;;;1.83;100.00
24230;BME280;12362;50.004;8.006;2023-04-15T04:17:55;99794.97;;;1.84;100.00
24230;BME280;12362;50.004;8.006;2023-04-15T04:20:21;99801.88;;;1.80;100.00
24230;BME280;12362;50.004;8.006;2023-04-15T04:22:46;99803.31;;;1.92;100.00
24230;BME280;12362;50.004;8.006;2023-04-15T04:25:12;99793.13;;;1.90;100.00
24230;BME280;12362;50.004;8.006;2023-04-15T04:27:38;99800.09;;;1.84;100.00
24230;BME280;12362;50.004;8.006;2023-04-15T04:30:05;99795.72;;;1.87;100.00
24230;BME280;12362;50.004;8.006;2023-04-15T04:32:31;99797.19;;;1.99;100.00
24230;BME280;12362;50.004;8.006;2023-04-15T04:34:57;99798.19;;;1.92;100.00
24230;BME280;12362;50.004;8.006;2023-04-15T04:37:22;99798.84;;;2.00;100.00
24230;BME280;12362;50.004;8.006;2023-04-15T04:39:48;99794.63;;;1.97;100.00
24230;BME280;12362;50.004;8.006;2023-04-15T04:42:14;99793.00;;;1.95;100.00
24230;BME280;12362;50.004;8.006;2023-04-15T04:44:40;99799.03;;;1.92;100.00
24230;BME280;12362;50.004;8.006;2023-04-15T04:47:06;99801.72;;;1.86;100.00
24230;BME280;12362;50.004;8.006;2023-04-15T04:49:32;99799.03;;;1.92;100.00
24230;BME280;12362;50.004;8.006;2023-04-15T04:51:58;99799.97;;;1.88;100.00
24230;BME280;12362;50.004;8.006;2023-04-15T04:54:23;99790.31;;;2.01;100.00
24230;BME280;12362;50.004;8.006;2023-04-15T04:56:49;99798.50;;;2.13;100.00
24230;BME280;12362;50.004;8.006;2023-04-15T04:59:14;99796.56;;;2.23;100.00
24230;BME280;12362;50.004;8.006;2023-04-15T05:01:40;99800.00;;;2.22;100.00
24230;BME280;12362;50.004;8.006;2023-04-15T05:04:06;99794.97;;;2.19;100.00
24230;BME280;12362;50.004;8.006;2023-04-15T05:06:32;99792.06;;;1.97;100.00
24230;BME280;12362;50.004;8.006;2023-04-15T05:08:58;99795.22;;;2.08;100.00
24230;BME280;12362;50.004;8.006;2023-04-15T05:11:23;99801.88;;;2.15;100.00
24230;BME280;12362;50.004;8.006;2023-04-15T05:13:49;99795.66;;;2.25;100.00
24230;BME280;12362;50.004;8.006;2023-04-15T05:16:14;99797.28;;;2.28;100.00
24230;BME280;12362;50.004;8.006;2023-04-15T05:18:40;99795.22;;;2.42;100.00
24230;BME280;12362;50.004;8.006;2023-04-15T05:21:05;99796.22;;;2.36;100.00
24230;BME280;12362;50.004;8.006;2023-04-15T05:23:32;99799.69;;;2.34;100.00
24230;BME280;12362;50.004;8.006;2023-04-15T05:26:00;99800.25;;;2.45;100.00
24230;BME280;12362;50.004;8.006;2023-04-15T05:28:26;99802.44;;;2.90;100.00
24230;BME280;12362;50.004;8.006;2023-04-15T05:30:52;99803.56;;;3.10;100.00
24230;BME280;12362;50.004;8.006;2023-04-15T05:33:17;99809.81;;;3.00;100.00
24230;BME280;12362;50.004;8.006;2023-04-15T05:35:43;99816.28;;;3.13;100.00
24230;BME280;12362;50.004;8.006;2023-04-15T05:38:08;99808.78;;;3.36;100.00
24230;BME280;12362;50.004;8.006;2023-04-15T05:40:34;99804.25;;;3.44;100.00
24230;BME280;12362;50.004;8.006;2023-04-15T05:43:02;99800.78;;;3.47;100.00
24230;BME280;12362;50.004;8.006;2023-04-15T05:45:27;99803.94;;;3.55;100.00
24230;BME280;12362;50.004;8.006;2023-04-15T05:47:53;99803.06;;;3.56;100.00
24230;BME280;12362;50.004;8.006;2023-04-15T05:50:19;99800.06;;;3.69;100.00
24230;BME280;12362;50.004;8.006;2023-04-15T05:52:45;99798.31;;;3.97;100.00
24230;BME280;12362;50.004;8.006;2023-04-15T05:55:11;99802.84;;;4.15;100.00
24230;BME280;12362;50.004;8.006;2023-04-15T05:57:37;99803.09;;;4.33;100.00
24230;BME280;12362;50.004;8.006;2023-04-15T06:00:03;99805.88;;;4.51;100.00
24230;BME280;12362;50.004;8.006;2023-04-15T06:02:35;99810.50;;;4.91;100.00
24230;BME280;12362;50.004;8.006;2023-04-15T06:05:00;99801.16;;;5.11;100.00
24230;BME280;12362;50.004;8.006;2023-04-15T06:07:26;99810.72;;;5.08;100.00
24230;BME280;12362;50.004;8.006;2023-04-15T06:09:52;99808.84;;;5.13;100.00
24230;BME280;12362;50.004;8.006;2023-04-15T06:12:17;99800.09;;;5.39;100.00
24230;BME280;12362;50.004;8.006;2023-04-15T06:14:43;99792.81;;;5.72;100.00
24230;BME280;12362;50.004;8.006;2023-04-15T06:17:08;99797.06;;;5.73;100.00
24230;BME280;12362;50.004;8.006;2023-04-15T06:19:34;99800.34;;;5.78;100.00
24230;BME280;12362;50.004;8.006;2023-04-15T06:22:01;99800.59;;;5.93;100.00
24230;BME280;12362;50.004;8.006;2023-04-15T06:24:27;99793.44;;;6.21;100.00
24230;BME280;12362;50.004;8.006;2023-04-15T06:26:52;99794.41;;;6.58;100.00
24230;BME280;12362;50.004;8.006;2023-04-15T06:29:18;99797.50;;;7.05;100.00
24230;BME280;12362;50.004;8.006;2023-04-15T06:31:46;99791.81;;;7.53;100.00
24230;BME280;12362;50.004;8.006;2023-04-15T06:34:12;99788.72;;;8.17;100.00
24230;BME280;12362;50.004;8.006;2023-04-15T06:36:37;99775.94;;;8.31;100.00
24230;BME280;12362;50.004;8.006;2023-04-15T06:39:03;99774.81;;;8.37;100.00
24230;BME280;12362;50.004;8.006;2023-04-15T06:41:29;99782.28;;;7.91;100.00
24230;BME280;12362;50.004;8.006;2023-04-15T06:43:54;99778.63;;;7.59;100.00
24230;BME280;12362;50.004;8.006;2023-04-15T06:46:20;99784.69;;;7.40;100.00
24230;BME280;12362;50.004;8.006;2023-04-15T06:48:46;99786.03;;;7.84;100.00
24230;BME280;12362;50.004;8.006;2023-04-15T06:51:12;99783.75;;;7.78;100.00
24230;BME280;12362;50.004;8.006;2023-04-15T06:53:37;99785.13;;;7.85;100.00
24230;BME280;12362;50.004;8.006;2023-04-15T06:56:09;99782.91;;;7.77;100.00
24230;BME280;12362;50.004;8.006;2023-04-15T06:58:35;99789.00;;;7.76;100.00
24230;BME280;12362;50.004;8.006;2023-04-15T07:01:01;99783.91;;;7.75;100.00
24230;BME280;12362;50.004;8.006;2023-04-15T07:03:27;99779.91;;;7.86;100.00
24230;BME280;12362;50.004;8.006;2023-04-15T07:05:53;99786.91;;;8.01;100.00
24230;BME280;12362;50.004;8.006;2023-04-15T07:08:19;99787.59;;;8.40;100.00
24230;BME280;12362;50.004;8.006;2023-04-15T07:10:48;99786.59;;;8.59;100.00
24230;BME280;12362;50.004;8.006;2023-04-15T07:13:13;99780.28;;;8.65;100.00
24230;BME280;12362;50.004;8.006;2023-04-15T07:15:38;99788.19;;;8.79;100.00
24230;BME280;12362;50.004;8.006;2023-04-15T07:18:06;99783.09;;;9.09;100.00
24230;BME280;12362;50.004;8.006;2023-04-15T07:20:35;99771.16;;;9.22;100.00
24230;BME280;12362;50.004;8.006;2023-04-15T07:23:00;99774.22;;;8.98;100.00
24230;BME280;12362;50.004;8.006;2023-04-15T07:25:26;99768.75;;;8.87;100.00
24230;BME280;12362;50.004;8.006;2023-04-15T07:27:53;99766.91;;;9.21;100.00
24230;BME280;12362;50.004;8.006;2023-04-15T07:30:18;99765.84;;;9.41;100.00
24230;BME280;12362;50.004;8.006;2023-04-15T07:32:44;99769.75;;;9.48;100.00
24230;BME280;12362;50.004;8.006;2023-04-15T07:35:11;99765.41;;;10.39;100.00
24230;BME280;12362;50.004;8.006;2023-04-15T07:37:36;99757.78;;;10.93;100.00
24230;BME280;12362;50.004;8.006;2023-04-15T07:40:02;99753.50;;;11.75;100.00
24230;BME280;12362;50.004;8.006;2023-04-15T07:42:29;99749.72;;;12.19;100.00
24230;BME280;12362;50.004;8.006;2023-04-15T07:44:55;99736.03;;;12.79;100.00
24230;BME280;12362;50.004;8.006;2023-04-15T07:47:21;99734.94;;;12.95;100.00
24230;BME280;12362;50.004;8.006;2023-04-15T07:49:46;99741.88;;;12.70;100.00
24230;BME280;12362;50.004;8.006;2023-04-15T07:52:16;99731.47;;;13.07;100.00
24230;BME280;12362;50.004;8.006;2023-04-15T07:54:42;99737.28;;;12.86;100.00
24230;BME280;12362;50.004;8.006;2023-04-15T07:57:07;99734.13;;;13.31;100.00
24230;BME280;12362;50.004;8.006;2023-04-15T07:59:33;99730.97;;;13.74;100.00
24230;BME280;12362;50.004;8.006;2023-04-15T08:01:58;99729.25;;;14.32;100.00
24230;BME280;12362;50.004;8.006;2023-04-15T08:04:24;99724.66;;;14.12;100.00
24230;BME280;12362;50.004;8.006;2023-04-15T08:06:49;99718.50;;;14.58;100.00
24230;BME280;12362;50.004;8.006;2023-04-15T08:09:15;99711.13;;;14.63;97.46
24230;BME280;12362;50.004;8.006;2023-04-15T08:11:41;99716.78;;;15.25;96.30
24230;BME280;12362;50.004;8.006;2023-04-15T08:14:06;99716.41;;;14.85;94.13
24230;BME280;12362;50.004;8.006;2023-04-15T08:16:32;99722.25;;;14.44;95.62
24230;BME280;12362;50.004;8.006;2023-04-15T08:18:57;99726.97;;;14.84;94.86
24230;BME280;12362;50.004;8.006;2023-04-15T08:21:24;99729.50;;;14.96;100.00
24230;BME280;12362;50.004;8.006;2023-04-15T08:23:51;99732.19;;;14.28;100.00
24230;BME280;12362;50.004;8.006;2023-04-15T08:26:17;99740.41;;;14.11;100.00
24230;BME280;12362;50.004;8.006;2023-04-15T08:28:44;99744.81;;;13.03;100.00
24230;BME280;12362;50.004;8.006;2023-04-15T08:31:12;99749.97;;;13.28;100.00
24230;BME280;12362;50.004;8.006;2023-04-15T08:33:39;99756.06;;;13.16;100.00
24230;BME280;12362;50.004;8.006;2023-04-15T08:36:04;99749.69;;;13.20;100.00
24230;BME280;12362;50.004;8.006;2023-04-15T08:38:31;99755.41;;;13.37;100.00
24230;BME280;12362;50.004;8.006;2023-04-15T08:40:57;99749.69;;;13.91;100.00
24230;BME280;12362;50.004;8.006;2023-04-15T08:43:27;99750.09;;;14.55;100.00
24230;BME280;12362;50.004;8.006;2023-04-15T08:45:54;99747.41;;;14.79;99.25
24230;BME280;12362;50.004;8.006;2023-04-15T08:48:24;99752.16;;;14.96;83.23
24230;BME280;12362;50.004;8.006;2023-04-15T08:50:55;99742.66;;;15.17;89.51
24230;BME280;12362;50.004;8.006;2023-04-15T08:53:23;99751.31;;;14.73;86.20
24230;BME280;12362;50.004;8.006;2023-04-15T08:55:51;99739.22;;;15.16;85.95
24230;BME280;12362;50.004;8.006;2023-04-15T08:58:18;99740.13;;;16.12;78.07
24230;BME280;12362;50.004;8.006;2023-04-15T09:00:44;99740.06;;;15.49;78.38
24230;BME280;12362;50.004;8.006;2023-04-15T09:03:18;99740.13;;;16.43;75.58
24230;BME280;12362;50.004;8.006;2023-04-15T09:05:46;99734.44;;;16.59;74.88
24230;BME280;12362;50.004;8.006;2023-04-15T09:08:12;99720.72;;;17.26;71.21
24230;BME280;12362;50.004;8.006;2023-04-15T09:10:40;99710.63;;;18.65;60.93
24230;BME280;12362;50.004;8.006;2023-04-15T09:13:06;99710.03;;;18.90;59.18
24230;BME280;12362;50.004;8.006;2023-04-15T09:15:32;99711.59;;;18.73;59.90
24230;BME280;12362;50.004;8.006;2023-04-15T09:17:58;99721.06;;;18.57;58.53
24230;BME280;12362;50.004;8.006;2023-04-15T09:20:23;99715.72;;;19.31;56.11
24230;BME280;12362;50.004;8.006;2023-04-15T09:22:49;99712.13;;;19.22;54.39
24230;BME280;12362;50.004;8.006;2023-04-15T09:28:01;99713.84;;;19.68;56.02
24230;BME280;12362;50.004;8.006;2023-04-15T09:30:27;99722.44;;;19.43;53.19
24230;BME280;12362;50.004;8.006;2023-04-15T09:33:00;99725.44;;;17.81;59.50
24230;BME280;12362;50.004;8.006;2023-04-15T09:35:33;99726.03;;;17.35;58.26
24230;BME280;12362;50.004;8.006;2023-04-15T09:40:49;99731.97;;;17.86;54.32
24230;BME280;12362;50.004;8.006;2023-04-15T09:43:16;99731.25;;;17.84;54.15
24230;BME280;12362;50.004;8.006;2023-04-15T09:45:48;99734.75;;;18.51;50.79
24230;BME280;12362;50.004;8.006;2023-04-15T09:48:20;99719.88;;;18.78;51.64
24230;BME280;12362;50.004;8.006;2023-04-15T09:50:49;99726.84;;;18.60;54.50
24230;BME280;12362;50.004;8.006;2023-04-15T09:53:22;99723.28;;;18.98;47.21
24230;BME280;12362;50.004;8.006;2023-04-15T09:55:56;99732.06;;;17.85;53.04
24230;BME280;12362;50.004;8.006;2023-04-15T09:58:27;99736.09;;;18.08;51.99
24230;BME280;12362;50.004;8.006;2023-04-15T10:01:04;99740.91;;;17.84;55.08
24230;BME280;12362;50.004;8.006;2023-04-15T10:03:34;99744.19;;;17.57;52.58
24230;BME280;12362;50.004;8.006;2023-04-15T10:06:01;99740.13;;;18.21;53.60
24230;BME280;12362;50.004;8.006;2023-04-15T10:08:30;99740.25;;;17.33;53.55
24230;BME280;12362;50.004;8.006;2023-04-15T10:11:00;99746.66;;;17.49;53.28
24230;BME280;12362;50.004;8.006;2023-04-15T10:13:29;99752.31;;;17.54;52.77
24230;BME280;12362;50.004;8.006;2023-04-15T10:16:14;99745.63;;;17.32;45.98
24230;BME280;12362;50.004;8.006;2023-04-15T10:18:46;99748.19;;;17.52;48.11
24230;BME280;12362;50.004;8.006;2023-04-15T10:21:15;99746.03;;;17.07;51.65
24230;BME280;12362;50.004;8.006;2023-04-15T10:23:46;99759.06;;;16.88;52.78
24230;BME280;12362;50.004;8.006;2023-04-15T10:26:12;99769.16;;;16.20;55.43
24230;BME280;12362;50.004;8.006;2023-04-15T10:28:46;99761.59;;;16.78;53.17
24230;BME280;12362;50.004;8.006;2023-04-15T10:31:14;99758.03;;;16.79;54.74
24230;BME280;12362;50.004;8.006;2023-04-15T10:33:45;99768.97;;;16.64;53.02
24230;BME280;12362;50.004;8.006;2023-04-15T10:36:13;99762.25;;;16.91;50.28
24230;BME280;12362;50.004;8.006;2023-04-15T10:38:41;99757.03;;;17.51;45.54
24230;BME280;12362;50.004;8.006;2023-04-15T10:41:24;99767.81;;;17.57;47.80
24230;BME280;12362;50.004;8.006;2023-04-15T10:46:45;99769.44;;;17.98;46.49
24230;BME280;12362;50.004;8.006;2023-04-15T10:49:15;99782.06;;;18.23;47.68
24230;BME280;12362;50.004;8.006;2023-04-15T10:51:44;99783.09;;;17.82;45.86
24230;BME280;12362;50.004;8.006;2023-04-15T10:54:37;99777.34;;;18.17;43.28
24230;BME280;12362;50.004;8.006;2023-04-15T10:59:58;99780.09;;;19.00;41.05
24230;BME280;12362;50.004;8.006;2023-04-15T11:02:53;99777.59;;;18.89;36.15
24230;BME280;12362;50.004;8.006;2023-04-15T11:05:21;99787.44;;;18.87;39.78
24230;BME280;12362;50.004;8.006;2023-04-15T11:07:55;99788.53;;;18.85;38.72
24230;BME280;12362;50.004;8.006;2023-04-15T11:12:56;99791.53;;;17.76;41.62
24230;BME280;12362;50.004;8.006;2023-04-15T11:15:35;99787.03;;;17.58;41.43
24230;BME280;12362;50.004;8.006;2023-04-15T11:18:18;99801.66;;;17.51;42.37
24230;BME280;12362;50.004;8.006;2023-04-15T11:20:53;99802.63;;;17.99;40.59
24230;BME280;12362;50.004;8.006;2023-04-15T11:23:34;99806.31;;;17.87;39.75
24230;BME280;12362;50.004;8.006;2023-04-15T11:26:01;99806.06;;;17.90;41.05
24230;BME280;12362;50.004;8.006;2023-04-15T11:28:31;99798.78;;;17.54;42.66
24230;BME280;12362;50.004;8.006;2023-04-15T11:31:07;99809.69;;;17.59;41.83
24230;BME280;12362;50.004;8.006;2023-04-15T11:33:36;99820.16;;;16.99;46.39
24230;BME280;12362;50.004;8.006;2023-04-15T11:36:03;99814.38;;;17.26;46.39
24230;BME280;12362;50.004;8.006;2023-04-15T11:38:29;99832.03;;;17.03;45.43
24230;BME280;12362;50.004;8.006;2023-04-15T11:40:56;99825.81;;;16.84;45.03
24230;BME280;12362;50.004;8.006;2023-04-15T11:43:23;99822.56;;;17.32;46.14
24230;BME280;12362;50.004;8.006;2023-04-15T11:45:54;99813.00;;;17.51;45.13
24230;BME280;12362;50.004;8.006;2023-04-15T11:48:22;99823.91;;;17.86;46.63
24230;BME280;12362;50.004;8.006;2023-04-15T11:51:00;99829.06;;;17.67;45.78
24230;BME280;12362;50.004;8.006;2023-04-15T11:53:37;99834.28;;;18.07;47.70
24230;BME280;12362;50.004;8.006;2023-04-15T11:56:04;99840.34;;;18.46;49.06
24230;BME280;12362;50.004;8.006;2023-04-15T11:58:35;99835.56;;;18.12;46.11
24230;BME280;12362;50.004;8.006;2023-04-15T12:01:06;99852.56;;;17.19;48.76
24230;BME280;12362;50.004;8.006;2023-04-15T12:06:11;99854.22;;;16.58;47.36
24230;BME280;12362;50.004;8.006;2023-04-15T12:08:56;99878.09;;;16.23;49.09
24230;BME280;12362;50.004;8.006;2023-04-15T12:13:56;99889.56;;;16.11;57.06
24230;BME280;12362;50.004;8.006;2023-04-15T12:16:23;99899.00;;;15.58;59.11
24230;BME280;12362;50.004;8.006;2023-04-15T12:18:53;99895.78;;;15.77;58.29
24230;BME280;12362;50.004;8.006;2023-04-15T12:21:25;99895.75;;;16.10;60.61
24230;BME280;12362;50.004;8.006;2023-04-15T12:23:52;99896.56;;;16.74;58.47
24230;BME280;12362;50.004;8.006;2023-04-15T12:26:29;99888.38;;;16.88;55.34
24230;BME280;12362;50.004;8.006;2023-04-15T12:29:03;99896.59;;;16.95;57.32
24230;BME280;12362;50.004;8.006;2023-04-15T12:31:35;99897.09;;;17.40;56.53
24230;BME280;12362;50.004;8.006;2023-04-15T12:34:03;99895.66;;;17.16;60.10
24230;BME280;12362;50.004;8.006;2023-04-15T12:36:32;99900.94;;;16.85;72.21
24230;BME280;12362;50.004;8.006;2023-04-15T12:39:04;99896.97;;;17.11;64.44
24230;BME280;12362;50.004;8.006;2023-04-15T12:41:33;99898.25;;;16.11;66.06
24230;BME280;12362;50.004;8.006;2023-04-15T12:43:59;99911.50;;;15.66;76.65
24230;BME280;12362;50.004;8.006;2023-04-15T12:46:25;99928.16;;;15.65;80.12
24230;BME280;12362;50.004;8.006;2023-04-15T12:48:51;99916.84;;;16.08;75.55
24230;BME280;12362;50.004;8.006;2023-04-15T12:51:26;99919.81;;;16.04;66.07
24230;BME280;12362;50.004;8.006;2023-04-15T12:53:53;99925.97;;;15.59;63.22
24230;BME280;12362;50.004;8.006;2023-04-15T12:56:22;99926.56;;;15.51;67.12
24230;BME280;12362;50.004;8.006;2023-04-15T12:58:48;99922.19;;;15.85;74.73
24230;BME280;12362;50.004;8.006;2023-04-15T13:01:14;99926.81;;;16.14;76.95
24230;BME280;12362;50.004;8.006;2023-04-15T13:03:41;99922.88;;;16.20;62.87
24230;BME280;12362;50.004;8.006;2023-04-15T13:06:07;99931.59;;;16.31;71.19
24230;BME280;12362;50.004;8.006;2023-04-15T13:08:48;99935.78;;;16.01;79.27
24230;BME280;12362;50.004;8.006;2023-04-15T13:11:14;99939.22;;;15.90;92.03
24230;BME280;12362;50.004;8.006;2023-04-15T13:13:52;99937.53;;;15.67;89.31
24230;BME280;12362;50.004;8.006;2023-04-15T13:19:35;99953.38;;;16.21;88.65
24230;BME280;12362;50.004;8.006;2023-04-15T13:22:04;99948.13;;;16.21;81.92
24230;BME280;12362;50.004;8.006;2023-04-15T13:24:31;99960.84;;;15.59;84.38